sensor_id;sensor_type;location;lat;lon;timestamp;P1;durP1;ratioP1;P2;durP2;ratioP2
3677;SDS011;1855;50.934;6.958;2023-02-12T00:01:13;41.47;;;34.38;;
3677;SDS011;1855;50.934;6.958;2023-02-12T00:03:42;43.83;;;35.30;;
3677;SDS011;1855;50.934;6.958;2023-02-12T00:06:09;45.47;;;35.30;;
3677;SDS011;1855;50.934;6.958;2023-02-12T00:08:36;39.38;;;34.45;;
3677;SDS011;1855;50.934;6.958;2023-02-12T00:11:08;40.25;;;34.83;;
3677;SDS011;1855;50.934;6.958;2023-02-12T00:13:36;41.53;;;35.20;;
3677;SDS011;1855;50.934;6.958;2023-02-12T00:16:04;43.67;;;35.03;;
3677;SDS011;1855;50.934;6.958;2023-02-12T00:18:32;42.65;;;35.42;;
3677;SDS011;1855;50.934;6.958;2023-02-12T00:21:00;43.60;;;36.05;;
3677;SDS011;1855;50.934;6.958;2023-02-12T00:23:27;41.93;;;37.33;;
3677;SDS011;1855;50.934;6.958;2023-02-12T00:25:54;41.85;;;34.80;;
3677;SDS011;1855;50.934;6.958;2023-02-12T00:28:20;46.63;;;36.75;;
3677;SDS011;1855;50.934;6.958;2023-02-12T00:30:47;47.67;;;38.08;;
3677;SDS011;1855;50.934;6.958;2023-02-12T00:33:14;47.20;;;37.42;;
3677;SDS011;1855;50.934;6.958;2023-02-12T00:35:41;44.90;;;36.63;;
3677;SDS011;1855;50.934;6.958;2023-02-12T00:38:09;41.90;;;36.17;;
3677;SDS011;1855;50.934;6.958;2023-02-12T00:40:36;45.73;;;36.00;;
3677;SDS011;1855;50.934;6.958;2023-02-12T00:43:02;44.13;;;36.92;;
3677;SDS011;1855;50.934;6.958;2023-02-12T00:45:30;45.38;;;35.78;;
3677;SDS011;1855;50.934;6.958;2023-02-12T00:47:56;43.72;;;35.10;;
3677;SDS011;1855;50.934;6.958;2023-02-12T00:50:23;43.05;;;37.00;;
3677;SDS011;1855;50.934;6.958;2023-02-12T00:52:50;44.55;;;35.55;;
3677;SDS011;1855;50.934;6.958;2023-02-12T00:55:18;44.33;;;35.35;;
3677;SDS011;1855;50.934;6.958;2023-02-12T00:57:45;40.80;;;33.67;;
3677;SDS011;1855;50.934;6.958;2023-02-12T01:00:12;44.38;;;36.10;;
3677;SDS011;1855;50.934;6.958;2023-02-12T01:02:39;40.63;;;34.45;;
3677;SDS011;1855;50.934;6.958;2023-02-12T01:05:06;43.70;;;35.83;;
3677;SDS011;1855;50.934;6.958;2023-02-12T01:07:33;44.97;;;35.58;;
3677;SDS011;1855;50.934;6.958;2023-02-12T01:10:00;41.97;;;34.95;;
3677;SDS011;1855;50.934;6.958;2023-02-12T01:12:28;45.25;;;37.33;;
3677;SDS011;1855;50.934;6.958;2023-02-12T01:14:55;41.55;;;35.03;;
3677;SDS011;1855;50.934;6.958;2023-02-12T01:17:21;43.75;;;35.67;;
3677;SDS011;1855;50.934;6.958;2023-02-12T01:19:48;40.35;;;33.53;;
3677;SDS011;1855;50.934;6.958;2023-02-12T01:22:15;44.00;;;35.20;;
3677;SDS011;1855;50.934;6.958;2023-02-12T01:24:42;46.08;;;35.55;;
3677;SDS011;1855;50.934;6.958;2023-02-12T01:27:09;41.53;;;34.90;;
3677;SDS011;1855;50.934;6.958;2023-02-12T01:29:37;40.78;;;34.40;;
3677;SDS011;1855;50.934;6.958;2023-02-12T01:32:04;42.13;;;34.45;;
3677;SDS011;1855;50.934;6.958;2023-02-12T01:34:30;41.75;;;32.65;;
3677;SDS011;1855;50.934;6.958;2023-02-12T01:36:57;41.53;;;34.85;;
3677;SDS011;1855;50.934;6.958;2023-02-12T01:39:24;42.70;;;35.25;;
3677;SDS011;1855;50.934;6.958;2023-02-12T01:41:50;40.90;;;34.05;;
3677;SDS011;1855;50.934;6.958;2023-02-12T01:44:18;40.00;;;33.27;;
3677;SDS011;1855;50.934;6.958;2023-02-12T01:46:48;41.55;;;34.45;;
3677;SDS011;1855;50.934;6.958;2023-02-12T01:49:18;41.17;;;34.33;;
3677;SDS011;1855;50.934;6.958;2023-02-12T01:51:48;41.15;;;34.85;;
3677;SDS011;1855;50.934;6.958;2023-02-12T01:54:18;40.00;;;34.75;;
3677;SDS011;1855;50.934;6.958;2023-02-12T01:56:47;40.35;;;34.83;;
3677;SDS011;1855;50.934;6.958;2023-02-12T01:59:14;43.40;;;36.55;;
3677;SDS011;1855;50.934;6.958;2023-02-12T02:01:43;42.00;;;35.55;;
3677;SDS011;1855;50.934;6.958;2023-02-12T02:04:12;41.38;;;35.10;;
3677;SDS011;1855;50.934;6.958;2023-02-12T02:06:43;44.03;;;37.42;;
3677;SDS011;1855;50.934;6.958;2023-02-12T02:09:14;39.53;;;34.92;;
3677;SDS011;1855;50.934;6.958;2023-02-12T02:11:42;39.25;;;35.05;;
3677;SDS011;1855;50.934;6.958;2023-02-12T02:14:26;42.15;;;36.03;;
3677;SDS011;1855;50.934;6.958;2023-02-12T02:17:05;41.60;;;36.63;;
3677;SDS011;1855;50.934;6.958;2023-02-12T02:20:01;43.70;;;37.03;;
3677;SDS011;1855;50.934;6.958;2023-02-12T02:23:16;44.35;;;38.30;;
3677;SDS011;1855;50.934;6.958;2023-02-12T02:26:12;43.45;;;37.15;;
3677;SDS011;1855;50.934;6.958;2023-02-12T02:29:10;42.25;;;37.75;;
3677;SDS011;1855;50.934;6.958;2023-02-12T02:31:47;41.07;;;36.77;;
3677;SDS011;1855;50.934;6.958;2023-02-12T02:34:23;40.70;;;35.65;;
3677;SDS011;1855;50.934;6.958;2023-02-12T02:37:03;40.35;;;35.80;;
3677;SDS011;1855;50.934;6.958;2023-02-12T02:39:40;39.97;;;35.65;;
3677;SDS011;1855;50.934;6.958;2023-02-12T02:42:14;40.90;;;36.08;;
3677;SDS011;1855;50.934;6.958;2023-02-12T02:44:45;38.53;;;34.35;;
3677;SDS011;1855;50.934;6.958;2023-02-12T02:47:19;42.10;;;36.63;;
3677;SDS011;1855;50.934;6.958;2023-02-12T02:49:49;41.63;;;36.80;;
3677;SDS011;1855;50.934;6.958;2023-02-12T02:52:21;43.17;;;35.30;;
3677;SDS011;1855;50.934;6.958;2023-02-12T02:54:51;41.10;;;36.42;;
3677;SDS011;1855;50.934;6.958;2023-02-12T02:57:23;43.30;;;36.20;;
3677;SDS011;1855;50.934;6.958;2023-02-12T02:59:56;41.78;;;36.65;;
3677;SDS011;1855;50.934;6.958;2023-02-12T03:02:30;42.60;;;35.47;;
3677;SDS011;1855;50.934;6.958;2023-02-12T03:05:00;41.13;;;36.33;;
3677;SDS011;1855;50.934;6.958;2023-02-12T03:07:31;42.63;;;36.80;;
3677;SDS011;1855;50.934;6.958;2023-02-12T03:10:03;42.50;;;35.85;;
3677;SDS011;1855;50.934;6.958;2023-02-12T03:12:35;43.60;;;36.65;;
3677;SDS011;1855;50.934;6.958;2023-02-12T03:15:07;43.53;;;36.67;;
3677;SDS011;1855;50.934;6.958;2023-02-12T03:17:38;40.17;;;34.55;;
3677;SDS011;1855;50.934;6.958;2023-02-12T03:20:09;41.65;;;35.63;;
3677;SDS011;1855;50.934;6.958;2023-02-12T03:22:42;44.00;;;36.88;;
3677;SDS011;1855;50.934;6.958;2023-02-12T03:25:15;43.70;;;36.53;;
3677;SDS011;1855;50.934;6.958;2023-02-12T03:27:46;41.15;;;34.42;;
3677;SDS011;1855;50.934;6.958;2023-02-12T03:30:17;41.55;;;35.65;;
3677;SDS011;1855;50.934;6.958;2023-02-12T03:32:49;39.78;;;33.28;;
3677;SDS011;1855;50.934;6.958;2023-02-12T03:35:23;40.67;;;34.60;;
3677;SDS011;1855;50.934;6.958;2023-02-12T03:37:54;40.72;;;35.50;;
3677;SDS011;1855;50.934;6.958;2023-02-12T03:40:26;42.03;;;36.57;;
3677;SDS011;1855;50.934;6.958;2023-02-12T03:42:57;41.95;;;35.53;;
3677;SDS011;1855;50.934;6.958;2023-02-12T03:45:30;41.15;;;34.83;;
3677;SDS011;1855;50.934;6.958;2023-02-12T03:48:09;36.63;;;32.63;;
3677;SDS011;1855;50.934;6.958;2023-02-12T03:50:42;39.35;;;33.88;;
3677;SDS011;1855;50.934;6.958;2023-02-12T03:53:15;39.55;;;35.25;;
3677;SDS011;1855;50.934;6.958;2023-02-12T03:55:42;39.42;;;35.13;;
3677;SDS011;1855;50.934;6.958;2023-02-12T03:58:13;39.80;;;34.45;;
3677;SDS011;1855;50.934;6.958;2023-02-12T04:00:44;39.63;;;34.50;;
3677;SDS011;1855;50.934;6.958;2023-02-12T04:03:12;42.22;;;36.03;;
3677;SDS011;1855;50.934;6.958;2023-02-12T04:05:39;43.25;;;36.90;;
3677;SDS011;1855;50.934;6.958;2023-02-12T04:08:07;42.33;;;37.42;;
3677;SDS011;1855;50.934;6.958;2023-02-12T04:10:37;41.63;;;36.10;;
3677;SDS011;1855;50.934;6.958;2023-02-12T04:13:15;43.47;;;36.90;;
3677;SDS011;1855;50.934;6.958;2023-02-12T04:15:57;39.95;;;34.92;;
3677;SDS011;1855;50.934;6.958;2023-02-12T04:18:35;42.67;;;35.40;;
3677;SDS011;1855;50.934;6.958;2023-02-12T04:21:08;39.15;;;34.88;;
3677;SDS011;1855;50.934;6.958;2023-02-12T04:23:44;39.88;;;35.55;;
3677;SDS011;1855;50.934;6.958;2023-02-12T04:26:22;43.38;;;37.70;;
3677;SDS011;1855;50.934;6.958;2023-02-12T04:28:58;43.80;;;36.80;;
3677;SDS011;1855;50.934;6.958;2023-02-12T04:31:37;42.10;;;36.38;;
3677;SDS011;1855;50.934;6.958;2023-02-12T04:34:12;40.90;;;35.25;;
3677;SDS011;1855;50.934;6.958;2023-02-12T04:36:44;40.23;;;35.40;;
3677;SDS011;1855;50.934;6.958;2023-02-12T04:39:16;40.85;;;35.72;;
3677;SDS011;1855;50.934;6.958;2023-02-12T04:41:47;39.97;;;35.63;;
3677;SDS011;1855;50.934;6.958;2023-02-12T04:44:15;39.53;;;34.90;;
3677;SDS011;1855;50.934;6.958;2023-02-12T04:46:43;39.60;;;35.47;;
3677;SDS011;1855;50.934;6.958;2023-02-12T04:49:13;38.88;;;34.35;;
3677;SDS011;1855;50.934;6.958;2023-02-12T04:51:41;39.33;;;35.13;;
3677;SDS011;1855;50.934;6.958;2023-02-12T04:54:08;39.05;;;34.47;;
3677;SDS011;1855;50.934;6.958;2023-02-12T04:56:35;38.63;;;34.28;;
3677;SDS011;1855;50.934;6.958;2023-02-12T04:59:02;38.05;;;33.95;;
3677;SDS011;1855;50.934;6.958;2023-02-12T05:01:29;43.03;;;35.42;;
3677;SDS011;1855;50.934;6.958;2023-02-12T05:03:56;40.92;;;35.15;;
3677;SDS011;1855;50.934;6.958;2023-02-12T05:06:24;39.57;;;35.23;;
3677;SDS011;1855;50.934;6.958;2023-02-12T05:08:51;41.13;;;36.60;;
3677;SDS011;1855;50.934;6.958;2023-02-12T05:11:18;41.50;;;36.00;;
3677;SDS011;1855;50.934;6.958;2023-02-12T05:13:46;39.05;;;34.95;;
3677;SDS011;1855;50.934;6.958;2023-02-12T05:16:13;38.83;;;34.72;;
3677;SDS011;1855;50.934;6.958;2023-02-12T05:18:40;39.53;;;35.33;;
3677;SDS011;1855;50.934;6.958;2023-02-12T05:21:07;38.60;;;34.40;;
3677;SDS011;1855;50.934;6.958;2023-02-12T05:23:36;39.00;;;34.80;;
3677;SDS011;1855;50.934;6.958;2023-02-12T05:26:05;39.10;;;34.75;;
3677;SDS011;1855;50.934;6.958;2023-02-12T05:28:33;43.08;;;35.47;;
3677;SDS011;1855;50.934;6.958;2023-02-12T05:31:00;37.60;;;33.60;;
3677;SDS011;1855;50.934;6.958;2023-02-12T05:33:27;38.15;;;34.15;;
3677;SDS011;1855;50.934;6.958;2023-02-12T05:35:54;38.85;;;34.75;;
3677;SDS011;1855;50.934;6.958;2023-02-12T05:38:20;39.85;;;34.53;;
3677;SDS011;1855;50.934;6.958;2023-02-12T05:40:49;39.00;;;34.67;;
3677;SDS011;1855;50.934;6.958;2023-02-12T05:43:15;37.78;;;33.80;;
3677;SDS011;1855;50.934;6.958;2023-02-12T05:45:42;39.05;;;34.95;;
3677;SDS011;1855;50.934;6.958;2023-02-12T05:48:09;38.70;;;34.70;;
3677;SDS011;1855;50.934;6.958;2023-02-12T05:50:36;39.00;;;34.85;;
3677;SDS011;1855;50.934;6.958;2023-02-12T05:53:02;40.20;;;35.92;;
3677;SDS011;1855;50.934;6.958;2023-02-12T05:55:29;41.50;;;37.00;;
3677;SDS011;1855;50.934;6.958;2023-02-12T05:57:57;40.25;;;36.00;;
3677;SDS011;1855;50.934;6.958;2023-02-12T06:00:24;40.25;;;35.97;;
3677;SDS011;1855;50.934;6.958;2023-02-12T06:02:51;39.40;;;35.28;;
3677;SDS011;1855;50.934;6.958;2023-02-12T06:05:18;37.95;;;34.15;;
3677;SDS011;1855;50.934;6.958;2023-02-12T06:07:44;39.17;;;35.07;;
3677;SDS011;1855;50.934;6.958;2023-02-12T06:10:11;36.75;;;33.05;;
3677;SDS011;1855;50.934;6.958;2023-02-12T06:12:38;37.25;;;33.35;;
3677;SDS011;1855;50.934;6.958;2023-02-12T06:15:06;36.80;;;32.90;;
3677;SDS011;1855;50.934;6.958;2023-02-12T06:17:33;38.00;;;34.22;;
3677;SDS011;1855;50.934;6.958;2023-02-12T06:20:00;37.97;;;34.08;;
3677;SDS011;1855;50.934;6.958;2023-02-12T06:22:27;38.38;;;34.30;;
3677;SDS011;1855;50.934;6.958;2023-02-12T06:24:54;37.53;;;33.72;;
3677;SDS011;1855;50.934;6.958;2023-02-12T06:27:20;37.77;;;33.87;;
3677;SDS011;1855;50.934;6.958;2023-02-12T06:29:47;36.40;;;32.70;;
3677;SDS011;1855;50.934;6.958;2023-02-12T06:32:15;37.25;;;33.35;;
3677;SDS011;1855;50.934;6.958;2023-02-12T06:34:42;37.75;;;33.80;;
3677;SDS011;1855;50.934;6.958;2023-02-12T06:37:09;36.70;;;33.10;;
3677;SDS011;1855;50.934;6.958;2023-02-12T06:39:37;38.42;;;34.38;;
3677;SDS011;1855;50.934;6.958;2023-02-12T06:42:04;37.85;;;33.85;;
3677;SDS011;1855;50.934;6.958;2023-02-12T06:44:31;39.05;;;35.05;;
3677;SDS011;1855;50.934;6.958;2023-02-12T06:46:57;37.42;;;33.28;;
3677;SDS011;1855;50.934;6.958;2023-02-12T06:49:25;39.53;;;35.33;;
3677;SDS011;1855;50.934;6.958;2023-02-12T06:51:52;37.90;;;33.15;;
3677;SDS011;1855;50.934;6.958;2023-02-12T06:54:19;37.67;;;33.67;;
3677;SDS011;1855;50.934;6.958;2023-02-12T06:56:46;38.50;;;34.40;;
3677;SDS011;1855;50.934;6.958;2023-02-12T06:59:13;36.15;;;32.25;;
3677;SDS011;1855;50.934;6.958;2023-02-12T07:01:41;38.17;;;34.00;;
3677;SDS011;1855;50.934;6.958;2023-02-12T07:04:08;36.80;;;33.10;;
3677;SDS011;1855;50.934;6.958;2023-02-12T07:06:37;36.45;;;32.75;;
3677;SDS011;1855;50.934;6.958;2023-02-12T07:09:04;36.60;;;32.80;;
3677;SDS011;1855;50.934;6.958;2023-02-12T07:11:32;37.22;;;33.53;;
3677;SDS011;1855;50.934;6.958;2023-02-12T07:14:00;36.00;;;32.50;;
3677;SDS011;1855;50.934;6.958;2023-02-12T07:16:27;35.30;;;31.70;;
3677;SDS011;1855;50.934;6.958;2023-02-12T07:18:54;36.88;;;33.28;;
3677;SDS011;1855;50.934;6.958;2023-02-12T07:21:21;36.13;;;32.47;;
3677;SDS011;1855;50.934;6.958;2023-02-12T07:23:50;35.38;;;31.67;;
3677;SDS011;1855;50.934;6.958;2023-02-12T07:26:17;35.35;;;31.95;;
3677;SDS011;1855;50.934;6.958;2023-02-12T07:28:45;35.35;;;31.83;;
3677;SDS011;1855;50.934;6.958;2023-02-12T07:31:13;34.13;;;30.92;;
3677;SDS011;1855;50.934;6.958;2023-02-12T07:33:41;36.40;;;32.85;;
3677;SDS011;1855;50.934;6.958;2023-02-12T07:36:09;35.03;;;31.65;;
3677;SDS011;1855;50.934;6.958;2023-02-12T07:38:38;35.42;;;31.85;;
3677;SDS011;1855;50.934;6.958;2023-02-12T07:41:07;37.03;;;33.42;;
3677;SDS011;1855;50.934;6.958;2023-02-12T07:43:36;34.45;;;31.05;;
3677;SDS011;1855;50.934;6.958;2023-02-12T07:46:09;35.90;;;32.25;;
3677;SDS011;1855;50.934;6.958;2023-02-12T07:48:38;34.87;;;31.57;;
3677;SDS011;1855;50.934;6.958;2023-02-12T07:51:05;34.92;;;31.52;;
3677;SDS011;1855;50.934;6.958;2023-02-12T07:53:34;32.72;;;29.50;;
3677;SDS011;1855;50.934;6.958;2023-02-12T07:56:09;35.92;;;32.13;;
3677;SDS011;1855;50.934;6.958;2023-02-12T07:58:39;34.20;;;30.80;;
3677;SDS011;1855;50.934;6.958;2023-02-12T08:01:10;33.83;;;30.23;;
3677;SDS011;1855;50.934;6.958;2023-02-12T08:03:38;35.15;;;31.48;;
3677;SDS011;1855;50.934;6.958;2023-02-12T08:06:08;35.28;;;31.52;;
3677;SDS011;1855;50.934;6.958;2023-02-12T08:08:36;34.90;;;31.30;;
3677;SDS011;1855;50.934;6.958;2023-02-12T08:11:03;34.13;;;30.63;;
3677;SDS011;1855;50.934;6.958;2023-02-12T08:13:32;35.05;;;31.35;;
3677;SDS011;1855;50.934;6.958;2023-02-12T08:15:59;34.15;;;30.73;;
3677;SDS011;1855;50.934;6.958;2023-02-12T08:18:26;33.85;;;30.55;;
3677;SDS011;1855;50.934;6.958;2023-02-12T08:20:54;33.08;;;29.63;;
3677;SDS011;1855;50.934;6.958;2023-02-12T08:23:27;33.30;;;30.03;;
3677;SDS011;1855;50.934;6.958;2023-02-12T08:25:53;32.58;;;29.38;;
3677;SDS011;1855;50.934;6.958;2023-02-12T08:28:20;33.47;;;30.08;;
3677;SDS011;1855;50.934;6.958;2023-02-12T08:30:48;33.42;;;30.02;;
3677;SDS011;1855;50.934;6.958;2023-02-12T08:33:15;33.40;;;30.00;;
3677;SDS011;1855;50.934;6.958;2023-02-12T08:35:42;33.13;;;29.75;;
3677;SDS011;1855;50.934;6.958;2023-02-12T08:38:08;33.05;;;29.75;;
3677;SDS011;1855;50.934;6.958;2023-02-12T08:40:35;32.28;;;29.08;;
3677;SDS011;1855;50.934;6.958;2023-02-12T08:43:02;33.23;;;29.90;;
3677;SDS011;1855;50.934;6.958;2023-02-12T08:45:29;34.55;;;30.95;;
3677;SDS011;1855;50.934;6.958;2023-02-12T08:47:58;34.47;;;31.00;;
3677;SDS011;1855;50.934;6.958;2023-02-12T08:50:26;34.23;;;30.73;;
3677;SDS011;1855;50.934;6.958;2023-02-12T08:52:52;35.03;;;31.52;;
3677;SDS011;1855;50.934;6.958;2023-02-12T08:55:19;33.90;;;30.40;;
3677;SDS011;1855;50.934;6.958;2023-02-12T08:57:46;34.70;;;31.13;;
3677;SDS011;1855;50.934;6.958;2023-02-12T09:00:13;33.10;;;29.73;;
3677;SDS011;1855;50.934;6.958;2023-02-12T09:02:40;34.72;;;30.08;;
3677;SDS011;1855;50.934;6.958;2023-02-12T09:05:08;33.92;;;30.33;;
3677;SDS011;1855;50.934;6.958;2023-02-12T09:07:35;32.77;;;29.37;;
3677;SDS011;1855;50.934;6.958;2023-02-12T09:10:02;33.45;;;30.10;;
3677;SDS011;1855;50.934;6.958;2023-02-12T09:12:28;33.83;;;30.27;;
3677;SDS011;1855;50.934;6.958;2023-02-12T09:14:56;34.40;;;31.00;;
3677;SDS011;1855;50.934;6.958;2023-02-12T09:17:24;34.72;;;31.02;;
3677;SDS011;1855;50.934;6.958;2023-02-12T09:19:51;33.22;;;29.92;;
3677;SDS011;1855;50.934;6.958;2023-02-12T09:22:19;35.13;;;31.52;;
3677;SDS011;1855;50.934;6.958;2023-02-12T09:24:46;34.00;;;30.50;;
3677;SDS011;1855;50.934;6.958;2023-02-12T09:27:13;33.75;;;30.35;;
3677;SDS011;1855;50.934;6.958;2023-02-12T09:29:39;34.20;;;30.63;;
3677;SDS011;1855;50.934;6.958;2023-02-12T09:32:06;33.83;;;30.13;;
3677;SDS011;1855;50.934;6.958;2023-02-12T09:34:33;34.63;;;31.03;;
3677;SDS011;1855;50.934;6.958;2023-02-12T09:37:00;34.53;;;30.65;;
3677;SDS011;1855;50.934;6.958;2023-02-12T09:39:28;34.15;;;30.55;;
3677;SDS011;1855;50.934;6.958;2023-02-12T09:44:45;32.95;;;29.55;;
3677;SDS011;1855;50.934;6.958;2023-02-12T09:47:22;35.70;;;31.90;;
3677;SDS011;1855;50.934;6.958;2023-02-12T09:49:58;35.58;;;31.90;;
3677;SDS011;1855;50.934;6.958;2023-02-12T09:52:37;34.70;;;30.95;;
3677;SDS011;1855;50.934;6.958;2023-02-12T09:55:08;36.05;;;32.30;;
3677;SDS011;1855;50.934;6.958;2023-02-12T09:57:37;36.40;;;32.60;;
3677;SDS011;1855;50.934;6.958;2023-02-12T10:00:06;37.25;;;33.45;;
3677;SDS011;1855;50.934;6.958;2023-02-12T10:02:35;36.25;;;32.45;;
3677;SDS011;1855;50.934;6.958;2023-02-12T10:05:03;36.17;;;31.88;;
3677;SDS011;1855;50.934;6.958;2023-02-12T10:07:38;36.33;;;32.42;;
3677;SDS011;1855;50.934;6.958;2023-02-12T10:10:25;35.92;;;32.05;;
3677;SDS011;1855;50.934;6.958;2023-02-12T10:13:06;36.88;;;32.92;;
3677;SDS011;1855;50.934;6.958;2023-02-12T10:15:40;38.15;;;33.95;;
3677;SDS011;1855;50.934;6.958;2023-02-12T10:18:16;37.95;;;33.85;;
3677;SDS011;1855;50.934;6.958;2023-02-12T10:21:02;39.25;;;35.05;;
3677;SDS011;1855;50.934;6.958;2023-02-12T10:23:51;39.47;;;34.20;;
3677;SDS011;1855;50.934;6.958;2023-02-12T10:26:39;41.78;;;37.47;;
3677;SDS011;1855;50.934;6.958;2023-02-12T10:29:10;42.75;;;38.25;;
3677;SDS011;1855;50.934;6.958;2023-02-12T10:31:41;39.00;;;35.00;;
3677;SDS011;1855;50.934;6.958;2023-02-12T10:34:13;36.45;;;32.75;;
3677;SDS011;1855;50.934;6.958;2023-02-12T10:36:43;36.90;;;32.95;;
3677;SDS011;1855;50.934;6.958;2023-02-12T10:39:12;36.42;;;32.47;;
3677;SDS011;1855;50.934;6.958;2023-02-12T10:41:45;35.50;;;31.88;;
3677;SDS011;1855;50.934;6.958;2023-02-12T10:44:15;40.42;;;36.22;;
3677;SDS011;1855;50.934;6.958;2023-02-12T10:46:42;39.38;;;35.20;;
3677;SDS011;1855;50.934;6.958;2023-02-12T10:49:09;38.47;;;34.47;;
3677;SDS011;1855;50.934;6.958;2023-02-12T10:51:42;35.13;;;31.30;;
3677;SDS011;1855;50.934;6.958;2023-02-12T10:57:16;34.30;;;30.80;;
3677;SDS011;1855;50.934;6.958;2023-02-12T10:59:46;34.35;;;30.73;;
3677;SDS011;1855;50.934;6.958;2023-02-12T11:02:18;34.38;;;30.80;;
3677;SDS011;1855;50.934;6.958;2023-02-12T11:04:50;34.47;;;30.97;;
3677;SDS011;1855;50.934;6.958;2023-02-12T11:07:19;33.53;;;29.90;;
3677;SDS011;1855;50.934;6.958;2023-02-12T11:09:46;33.67;;;30.17;;
3677;SDS011;1855;50.934;6.958;2023-02-12T11:12:31;33.97;;;30.30;;
3677;SDS011;1855;50.934;6.958;2023-02-12T11:15:00;32.47;;;28.98;;
3677;SDS011;1855;50.934;6.958;2023-02-12T11:17:31;31.88;;;28.55;;
3677;SDS011;1855;50.934;6.958;2023-02-12T11:20:05;32.92;;;29.52;;
3677;SDS011;1855;50.934;6.958;2023-02-12T11:22:49;33.03;;;29.55;;
3677;SDS011;1855;50.934;6.958;2023-02-12T11:25:17;31.70;;;28.43;;
3677;SDS011;1855;50.934;6.958;2023-02-12T11:27:46;30.67;;;27.50;;
3677;SDS011;1855;50.934;6.958;2023-02-12T11:30:25;31.80;;;28.40;;
3677;SDS011;1855;50.934;6.958;2023-02-12T11:32:51;30.05;;;26.85;;
3677;SDS011;1855;50.934;6.958;2023-02-12T11:35:19;33.00;;;29.40;;
3677;SDS011;1855;50.934;6.958;2023-02-12T11:37:50;31.92;;;28.63;;
3677;SDS011;1855;50.934;6.958;2023-02-12T11:40:20;29.83;;;26.87;;
3677;SDS011;1855;50.934;6.958;2023-02-12T11:42:50;30.90;;;27.42;;
3677;SDS011;1855;50.934;6.958;2023-02-12T11:45:20;31.05;;;27.40;;
3677;SDS011;1855;50.934;6.958;2023-02-12T11:47:51;29.52;;;26.52;;
3677;SDS011;1855;50.934;6.958;2023-02-12T11:50:21;29.95;;;26.58;;
3677;SDS011;1855;50.934;6.958;2023-02-12T11:52:51;28.75;;;25.60;;
3677;SDS011;1855;50.934;6.958;2023-02-12T11:55:22;30.48;;;27.00;;
3677;SDS011;1855;50.934;6.958;2023-02-12T11:57:53;28.27;;;25.25;;
3677;SDS011;1855;50.934;6.958;2023-02-12T12:00:28;27.13;;;24.23;;
3677;SDS011;1855;50.934;6.958;2023-02-12T12:02:59;27.27;;;24.48;;
3677;SDS011;1855;50.934;6.958;2023-02-12T12:05:30;26.15;;;23.38;;
3677;SDS011;1855;50.934;6.958;2023-02-12T12:08:02;26.85;;;24.15;;
3677;SDS011;1855;50.934;6.958;2023-02-12T12:10:33;26.08;;;23.33;;
3677;SDS011;1855;50.934;6.958;2023-02-12T12:13:07;29.00;;;25.98;;
3677;SDS011;1855;50.934;6.958;2023-02-12T12:15:39;27.13;;;24.33;;
3677;SDS011;1855;50.934;6.958;2023-02-12T12:18:28;24.98;;;22.23;;
3677;SDS011;1855;50.934;6.958;2023-02-12T12:21:19;25.83;;;23.02;;
3677;SDS011;1855;50.934;6.958;2023-02-12T12:23:51;25.50;;;22.90;;
3677;SDS011;1855;50.934;6.958;2023-02-12T12:26:23;25.35;;;22.65;;
3677;SDS011;1855;50.934;6.958;2023-02-12T12:28:56;23.67;;;21.23;;
3677;SDS011;1855;50.934;6.958;2023-02-12T12:31:27;24.60;;;22.10;;
3677;SDS011;1855;50.934;6.958;2023-02-12T12:34:01;22.90;;;20.50;;
3677;SDS011;1855;50.934;6.958;2023-02-12T12:36:43;24.30;;;21.75;;
3677;SDS011;1855;50.934;6.958;2023-02-12T12:39:43;23.70;;;21.20;;
3677;SDS011;1855;50.934;6.958;2023-02-12T12:45:41;21.33;;;19.02;;
3677;SDS011;1855;50.934;6.958;2023-02-12T12:48:34;22.20;;;19.33;;
3677;SDS011;1855;50.934;6.958;2023-02-12T12:51:22;20.70;;;18.50;;
3677;SDS011;1855;50.934;6.958;2023-02-12T12:54:01;20.30;;;18.23;;
3677;SDS011;1855;50.934;6.958;2023-02-12T12:56:41;21.85;;;19.27;;
3677;SDS011;1855;50.934;6.958;2023-02-12T13:02:30;19.27;;;17.23;;
3677;SDS011;1855;50.934;6.958;2023-02-12T13:05:23;18.88;;;16.98;;
3677;SDS011;1855;50.934;6.958;2023-02-12T13:08:07;18.10;;;16.30;;
3677;SDS011;1855;50.934;6.958;2023-02-12T13:10:45;19.17;;;17.08;;
3677;SDS011;1855;50.934;6.958;2023-02-12T13:13:19;18.90;;;17.00;;
3677;SDS011;1855;50.934;6.958;2023-02-12T13:15:54;18.13;;;16.23;;
3677;SDS011;1855;50.934;6.958;2023-02-12T13:18:40;17.00;;;15.30;;
3677;SDS011;1855;50.934;6.958;2023-02-12T13:21:17;17.67;;;15.88;;
3677;SDS011;1855;50.934;6.958;2023-02-12T13:23:55;18.58;;;16.63;;
3677;SDS011;1855;50.934;6.958;2023-02-12T13:26:25;18.00;;;14.98;;
3677;SDS011;1855;50.934;6.958;2023-02-12T13:28:59;16.90;;;15.20;;
3677;SDS011;1855;50.934;6.958;2023-02-12T13:31:31;16.08;;;14.38;;
3677;SDS011;1855;50.934;6.958;2023-02-12T13:34:12;15.43;;;13.93;;
3677;SDS011;1855;50.934;6.958;2023-02-12T13:36:41;17.05;;;15.35;;
3677;SDS011;1855;50.934;6.958;2023-02-12T13:39:11;16.08;;;14.48;;
3677;SDS011;1855;50.934;6.958;2023-02-12T13:41:44;17.15;;;15.30;;
3677;SDS011;1855;50.934;6.958;2023-02-12T13:44:19;16.63;;;14.93;;
3677;SDS011;1855;50.934;6.958;2023-02-12T13:46:55;18.35;;;16.35;;
3677;SDS011;1855;50.934;6.958;2023-02-12T13:49:34;16.85;;;15.13;;
3677;SDS011;1855;50.934;6.958;2023-02-12T13:52:10;16.25;;;14.65;;
3677;SDS011;1855;50.934;6.958;2023-02-12T13:54:46;16.33;;;14.63;;
3677;SDS011;1855;50.934;6.958;2023-02-12T13:57:21;16.75;;;15.15;;
3677;SDS011;1855;50.934;6.958;2023-02-12T13:59:48;16.20;;;14.60;;
3677;SDS011;1855;50.934;6.958;2023-02-12T14:02:25;18.75;;;16.85;;
3677;SDS011;1855;50.934;6.958;2023-02-12T14:05:15;18.38;;;16.48;;
3677;SDS011;1855;50.934;6.958;2023-02-12T14:07:49;17.30;;;15.70;;
3677;SDS011;1855;50.934;6.958;2023-02-12T14:10:22;17.15;;;15.48;;
3677;SDS011;1855;50.934;6.958;2023-02-12T14:12:52;18.33;;;16.40;;
3677;SDS011;1855;50.934;6.958;2023-02-12T14:15:27;17.50;;;15.70;;
3677;SDS011;1855;50.934;6.958;2023-02-12T14:18:20;18.10;;;16.30;;
3677;SDS011;1855;50.934;6.958;2023-02-12T14:27:20;18.42;;;16.63;;
3677;SDS011;1855;50.934;6.958;2023-02-12T14:30:02;18.17;;;16.17;;
3677;SDS011;1855;50.934;6.958;2023-02-12T14:32:55;18.05;;;15.50;;
3677;SDS011;1855;50.934;6.958;2023-02-12T14:35:29;16.80;;;15.10;;
3677;SDS011;1855;50.934;6.958;2023-02-12T14:37:57;16.38;;;14.70;;
3677;SDS011;1855;50.934;6.958;2023-02-12T14:40:41;17.25;;;15.45;;
3677;SDS011;1855;50.934;6.958;2023-02-12T14:43:25;16.80;;;15.10;;
3677;SDS011;1855;50.934;6.958;2023-02-12T14:49:15;15.48;;;13.88;;
3677;SDS011;1855;50.934;6.958;2023-02-12T14:51:50;15.80;;;14.20;;
3677;SDS011;1855;50.934;6.958;2023-02-12T14:54:25;15.18;;;13.68;;
3677;SDS011;1855;50.934;6.958;2023-02-12T14:56:55;14.85;;;13.35;;
3677;SDS011;1855;50.934;6.958;2023-02-12T14:59:26;14.85;;;13.35;;
3677;SDS011;1855;50.934;6.958;2023-02-12T15:01:59;11.60;;;10.40;;
3677;SDS011;1855;50.934;6.958;2023-02-12T15:04:29;12.05;;;10.85;;
3677;SDS011;1855;50.934;6.958;2023-02-12T15:06:59;13.27;;;11.88;;
3677;SDS011;1855;50.934;6.958;2023-02-12T15:09:32;15.68;;;13.98;;
3677;SDS011;1855;50.934;6.958;2023-02-12T15:12:04;14.00;;;12.70;;
3677;SDS011;1855;50.934;6.958;2023-02-12T15:14:38;13.70;;;12.40;;
3677;SDS011;1855;50.934;6.958;2023-02-12T15:17:08;17.98;;;16.27;;
3677;SDS011;1855;50.934;6.958;2023-02-12T15:19:42;17.08;;;15.27;;
3677;SDS011;1855;50.934;6.958;2023-02-12T15:22:18;16.00;;;14.40;;
3677;SDS011;1855;50.934;6.958;2023-02-12T15:24:48;15.23;;;13.52;;
3677;SDS011;1855;50.934;6.958;2023-02-12T15:27:15;15.20;;;13.75;;
3677;SDS011;1855;50.934;6.958;2023-02-12T15:29:45;15.65;;;14.05;;
3677;SDS011;1855;50.934;6.958;2023-02-12T15:32:16;14.93;;;13.43;;
3677;SDS011;1855;50.934;6.958;2023-02-12T15:34:49;15.63;;;13.93;;